Wetterdaten: Woche 20.07.15 - 26.07.15 (KW30)
Datum Zeit Temp. Aussen +5cm Feuchte Auss BlattFeu 1 Luftdruck Regen Sonnenschein Regendauer Solar Windben
20.07.2015 00:00 16,3 C 14,3 C 91 % 2 lf 1012,1 hPa 0,0 l/m 0,00 h 0,00 h 0 W/m 6,9 km/h (2 Bft)
20.07.2015 01:00 15,8 C 13,9 C 92 % 1 lf 1012,4 hPa 0,0 l/m 0,00 h 0,00 h 0 W/m 7,5 km/h (2 Bft)
20.07.2015 02:00 15,3 C 13,4 C 92 % 1 lf 1012,5 hPa 0,0 l/m 0,00 h 0,00 h 0 W/m 5,6 km/h (1 Bft)
20.07.2015 03:00 14,5 C 12,4 C 91 % 7 lf 1012,6 hPa 0,0 l/m 0,00 h 0,00 h 0 W/m 2,3 km/h (1 Bft)
20.07.2015 04:00 13,7 C 11,8 C 92 % 15 lf 1012,8 hPa 0,0 l/m 0,00 h 0,00 h 0 W/m 2,3 km/h (1 Bft)
20.07.2015 05:00 13,1 C 11,3 C 93 % 15 lf 1012,7 hPa 0,0 l/m 0,00 h 0,00 h 8 W/m 2,2 km/h (1 Bft)
20.07.2015 06:00 12,8 C 11,7 C 94 % 15 lf 1012,7 hPa 0,0 l/m 0,80 h 0,00 h 64 W/m 2,8 km/h (1 Bft)
20.07.2015 07:00 13,7 C 13,1 C 96 % 15 lf 1012,8 hPa 0,0 l/m 1,00 h 0,00 h 217 W/m 4,5 km/h (1 Bft)
20.07.2015 08:00 15,3 C 15,6 C 97 % 6 lf 1012,9 hPa 0,0 l/m 0,97 h 0,00 h 370 W/m 9,3 km/h (2 Bft)
20.07.2015 09:00 18,8 C 18,6 C 85 % 0 lf 1013,1 hPa 0,0 l/m 0,60 h 0,00 h 302 W/m 11,0 km/h (2 Bft)
20.07.2015 10:00 20,5 C 18,6 C 76 % 0 lf 1013,4 hPa 0,0 l/m 0,07 h 0,10 h 228 W/m 12,7 km/h (3 Bft)
20.07.2015 11:00 19,1 C 16,8 C 82 % 2 lf 1013,5 hPa 0,0 l/m 0,20 h 0,17 h 224 W/m 5,4 km/h (1 Bft)
20.07.2015 12:00 20,0 C 20,6 C 84 % 0 lf 1013,2 hPa 0,0 l/m 0,60 h 0,00 h 465 W/m 12,7 km/h (3 Bft)
20.07.2015 13:00 21,4 C 21,7 C 82 % 0 lf 1013,1 hPa 0,0 l/m 0,37 h 0,00 h 411 W/m 13,6 km/h (3 Bft)
20.07.2015 14:00 22,5 C 22,7 C 82 % 0 lf 1012,5 hPa 0,0 l/m 0,47 h 0,00 h 404 W/m 14,7 km/h (3 Bft)
20.07.2015 15:00 22,8 C 21,7 C 83 % 0 lf 1012,3 hPa 0,2 l/m 0,10 h 0,13 h 184 W/m 12,3 km/h (3 Bft)
20.07.2015 16:00 22,4 C 20,4 C 87 % 1 lf 1011,9 hPa 0,0 l/m 0,00 h 0,03 h 98 W/m 10,7 km/h (2 Bft)
20.07.2015 17:00 22,8 C 22,0 C 89 % 1 lf 1011,6 hPa 0,0 l/m 0,07 h 0,07 h 186 W/m 10,3 km/h (2 Bft)
20.07.2015 18:00 23,5 C 22,0 C 87 % 1 lf 1011,4 hPa 0,0 l/m 0,50 h 0,03 h 219 W/m 18,5 km/h (3 Bft)
20.07.2015 19:00 23,4 C 21,1 C 87 % 7 lf 1011,4 hPa 0,6 l/m 0,00 h 0,33 h 69 W/m 14,3 km/h (3 Bft)
20.07.2015 20:00 22,6 C 19,7 C 91 % 15 lf 1011,5 hPa 0,0 l/m 0,28 h 0,00 h 68 W/m 12,6 km/h (3 Bft)
20.07.2015 21:00 21,7 C 19,1 C 93 % 15 lf 1011,7 hPa 0,0 l/m 0,00 h 0,00 h 12 W/m 7,8 km/h (2 Bft)
20.07.2015 22:00 21,3 C 18,9 C 94 % 15 lf 1012,0 hPa 0,0 l/m 0,00 h 0,00 h 0 W/m 10,0 km/h (2 Bft)
20.07.2015 23:00 21,0 C 18,9 C 95 % 5 lf 1012,3 hPa 0,0 l/m 0,00 h 0,00 h 0 W/m 13,5 km/h (3 Bft)
21.07.2015 00:00 20,9 C 18,5 C 95 % 1 lf 1012,4 hPa 0,0 l/m 0,00 h 0,00 h 0 W/m 13,1 km/h (3 Bft)
21.07.2015 01:00 20,5 C 18,3 C 95 % 2 lf 1012,4 hPa 0,0 l/m 0,00 h 0,00 h 0 W/m 7,7 km/h (2 Bft)
21.07.2015 02:00 20,3 C 18,2 C 96 % 2 lf 1012,0 hPa 0,0 l/m 0,00 h 0,00 h 0 W/m 7,3 km/h (2 Bft)
21.07.2015 03:00 19,8 C 17,8 C 96 % 7 lf 1011,6 hPa 0,0 l/m 0,00 h 0,00 h 0 W/m 6,5 km/h (2 Bft)
21.07.2015 04:00 19,4 C 17,9 C 97 % 3 lf 1011,5 hPa 0,0 l/m 0,00 h 0,00 h 0 W/m 6,7 km/h (2 Bft)
21.07.2015 05:00 19,6 C 18,3 C 97 % 1 lf 1011,5 hPa 0,0 l/m 0,00 h 0,00 h 6 W/m 13,7 km/h (3 Bft)
21.07.2015 06:00 20,0 C 18,8 C 96 % 0 lf 1011,8 hPa 0,0 l/m 0,00 h 0,00 h 28 W/m 16,1 km/h (3 Bft)
21.07.2015 07:00 20,7 C 19,5 C 94 % 0 lf 1012,2 hPa 0,0 l/m 0,10 h 0,00 h 81 W/m 15,7 km/h (3 Bft)
21.07.2015 08:00 21,4 C 20,2 C 91 % 0 lf 1012,7 hPa 0,0 l/m 0,00 h 0,00 h 95 W/m 19,5 km/h (3 Bft)
21.07.2015 09:00 21,8 C 20,8 C 85 % 0 lf 1013,2 hPa 0,0 l/m 0,47 h 0,00 h 293 W/m 21,3 km/h (4 Bft)
21.07.2015 10:00 23,8 C 24,6 C 72 % 0 lf 1013,3 hPa 0,0 l/m 0,83 h 0,00 h 534 W/m 23,9 km/h (4 Bft)
21.07.2015 11:00 25,4 C 25,4 C 68 % 0 lf 1013,6 hPa 0,0 l/m 0,67 h 0,00 h 609 W/m 21,1 km/h (4 Bft)
21.07.2015 12:00 26,7 C 26,5 C 63 % 0 lf 1013,8 hPa 0,0 l/m 0,78 h 0,00 h 572 W/m 20,8 km/h (4 Bft)
21.07.2015 13:00 26,2 C 25,1 C 67 % 0 lf 1014,0 hPa 0,0 l/m 0,67 h 0,00 h 528 W/m 21,8 km/h (4 Bft)
21.07.2015 14:00 26,0 C 24,9 C 70 % 0 lf 1014,1 hPa 0,0 l/m 0,93 h 0,00 h 484 W/m 23,4 km/h (4 Bft)
21.07.2015 15:00 25,8 C 25,2 C 74 % 0 lf 1013,9 hPa 0,0 l/m 0,87 h 0,00 h 539 W/m 21,5 km/h (4 Bft)
21.07.2015 16:00 26,5 C 25,6 C 73 % 0 lf 1013,5 hPa 0,0 l/m 0,77 h 0,00 h 487 W/m 22,2 km/h (4 Bft)
21.07.2015 17:00 27,0 C 25,1 C 70 % 0 lf 1013,2 hPa 0,0 l/m 0,70 h 0,00 h 417 W/m 22,0 km/h (4 Bft)
21.07.2015 18:00 26,4 C 24,2 C 71 % 0 lf 1013,0 hPa 0,0 l/m 0,70 h 0,00 h 329 W/m 20,0 km/h (4 Bft)
21.07.2015 19:00 25,7 C 23,5 C 71 % 0 lf 1012,9 hPa 0,0 l/m 0,80 h 0,00 h 207 W/m 19,1 km/h (3 Bft)
21.07.2015 20:00 25,2 C 22,5 C 73 % 0 lf 1012,9 hPa 0,0 l/m 0,53 h 0,00 h 76 W/m 10,5 km/h (2 Bft)
21.07.2015 21:00 24,1 C 20,6 C 75 % 0 lf 1013,2 hPa 0,0 l/m 0,00 h 0,00 h 13 W/m 6,9 km/h (2 Bft)
21.07.2015 22:00 22,7 C 19,2 C 80 % 0 lf 1013,8 hPa 0,0 l/m 0,00 h 0,00 h 0 W/m 2,9 km/h (1 Bft)
21.07.2015 23:00 21,4 C 18,3 C 84 % 0 lf 1013,7 hPa 0,0 l/m 0,00 h 0,00 h 0 W/m 2,9 km/h (1 Bft)
22.07.2015 00:00 20,4 C 17,8 C 88 % 1 lf 1013,6 hPa 0,0 l/m 0,00 h 0,00 h 0 W/m 1,0 km/h (0 Bft)
22.07.2015 01:00 19,6 C 17,2 C 90 % 1 lf 1013,5 hPa 0,0 l/m 0,00 h 0,00 h 0 W/m 3,7 km/h (1 Bft)
22.07.2015 02:00 19,3 C 17,8 C 93 % 1 lf 1013,3 hPa 0,0 l/m 0,00 h 0,00 h 0 W/m 1,8 km/h (1 Bft)
22.07.2015 03:00 19,3 C 18,1 C 94 % 0 lf 1013,5 hPa 0,0 l/m 0,00 h 0,00 h 0 W/m 5,2 km/h (1 Bft)
22.07.2015 04:00 19,2 C 18,1 C 92 % 0 lf 1013,4 hPa 0,0 l/m 0,00 h 0,00 h 0 W/m 4,1 km/h (1 Bft)
22.07.2015 05:00 19,2 C 18,3 C 89 % 0 lf 1013,6 hPa 0,0 l/m 0,00 h 0,00 h 4 W/m 7,8 km/h (2 Bft)
22.07.2015 06:00 19,5 C 18,3 C 82 % 0 lf 1013,9 hPa 0,0 l/m 0,00 h 0,00 h 15 W/m 7,6 km/h (2 Bft)
22.07.2015 07:00 19,5 C 18,3 C 82 % 0 lf 1014,1 hPa 0,0 l/m 0,00 h 0,00 h 30 W/m 7,8 km/h (2 Bft)
22.07.2015 08:00 19,5 C 18,5 C 77 % 0 lf 1014,4 hPa 0,0 l/m 0,00 h 0,00 h 83 W/m 12,1 km/h (2 Bft)
22.07.2015 09:00 19,9 C 19,1 C 75 % 0 lf 1014,6 hPa 0,0 l/m 0,07 h 0,00 h 162 W/m 12,1 km/h (2 Bft)
22.07.2015 10:00 21,6 C 21,8 C 72 % 0 lf 1014,5 hPa 0,0 l/m 0,73 h 0,00 h 424 W/m 13,6 km/h (3 Bft)
22.07.2015 11:00 23,8 C 23,2 C 66 % 0 lf 1014,6 hPa 0,0 l/m 0,97 h 0,00 h 495 W/m 11,9 km/h (2 Bft)
22.07.2015 12:00 24,5 C 23,8 C 60 % 0 lf 1014,5 hPa 0,0 l/m 0,92 h 0,00 h 503 W/m 16,8 km/h (3 Bft)
22.07.2015 13:00 25,6 C 25,2 C 57 % 0 lf 1014,5 hPa 0,0 l/m 1,00 h 0,00 h 695 W/m 16,4 km/h (3 Bft)
22.07.2015 14:00 27,0 C 25,6 C 55 % 0 lf 1014,2 hPa 0,0 l/m 1,00 h 0,00 h 723 W/m 17,8 km/h (3 Bft)
22.07.2015 15:00 26,9 C 25,3 C 55 % 0 lf 1014,0 hPa 0,0 l/m 0,67 h 0,00 h 530 W/m 20,8 km/h (4 Bft)
22.07.2015 16:00 26,9 C 24,1 C 55 % 0 lf 1013,8 hPa 0,0 l/m 0,70 h 0,00 h 503 W/m 18,2 km/h (3 Bft)
22.07.2015 17:00 25,9 C 18,9 C 58 % 0 lf 1013,7 hPa 0,0 l/m 0,60 h 0,00 h 406 W/m 20,4 km/h (4 Bft)
22.07.2015 18:00 24,9 C 21,8 C 58 % 0 lf 1013,9 hPa 0,0 l/m 0,63 h 0,00 h 276 W/m 20,1 km/h (4 Bft)
22.07.2015 19:00 23,2 C 21,1 C 63 % 0 lf 1014,3 hPa 0,0 l/m 0,63 h 0,00 h 176 W/m 14,3 km/h (3 Bft)
22.07.2015 20:00 22,5 C 20,4 C 65 % 0 lf 1014,2 hPa 0,0 l/m 0,67 h 0,00 h 74 W/m 10,1 km/h (2 Bft)
22.07.2015 21:00 21,5 C 18,7 C 67 % 0 lf 1014,5 hPa 0,0 l/m 0,00 h 0,00 h 12 W/m 4,2 km/h (1 Bft)
22.07.2015 22:00 20,4 C 17,4 C 72 % 0 lf 1014,7 hPa 0,0 l/m 0,00 h 0,00 h 0 W/m 1,1 km/h (0 Bft)
22.07.2015 23:00 19,5 C 17,4 C 76 % 0 lf 1014,8 hPa 0,0 l/m 0,00 h 0,00 h 0 W/m 3,5 km/h (1 Bft)
23.07.2015 00:00 19,0 C 16,5 C 77 % 0 lf 1014,8 hPa 0,0 l/m 0,00 h 0,00 h 0 W/m 4,6 km/h (1 Bft)
23.07.2015 01:00 18,2 C 16,6 C 78 % 0 lf 1015,0 hPa 0,0 l/m 0,00 h 0,00 h 0 W/m 11,6 km/h (2 Bft)
23.07.2015 02:00 18,0 C 16,2 C 77 % 0 lf 1015,2 hPa 0,0 l/m 0,00 h 0,00 h 0 W/m 13,0 km/h (3 Bft)
23.07.2015 03:00 17,0 C 14,5 C 79 % 0 lf 1015,5 hPa 0,0 l/m 0,00 h 0,00 h 0 W/m 5,3 km/h (1 Bft)
23.07.2015 04:00 15,7 C 13,9 C 83 % 0 lf 1015,6 hPa 0,0 l/m 0,00 h 0,00 h 0 W/m 10,6 km/h (2 Bft)
23.07.2015 05:00 15,0 C 13,8 C 83 % 0 lf 1015,8 hPa 0,0 l/m 0,00 h 0,00 h 8 W/m 10,7 km/h (2 Bft)
23.07.2015 06:00 14,5 C 13,3 C 85 % 0 lf 1016,1 hPa 0,0 l/m 0,63 h 0,00 h 57 W/m 8,3 km/h (2 Bft)
23.07.2015 07:00 14,6 C 14,2 C 87 % 0 lf 1016,5 hPa 0,0 l/m 1,00 h 0,00 h 200 W/m 10,1 km/h (2 Bft)
23.07.2015 08:00 16,3 C 16,1 C 86 % 0 lf 1017,0 hPa 0,0 l/m 0,57 h 0,00 h 223 W/m 11,3 km/h (2 Bft)
23.07.2015 09:00 18,2 C 17,8 C 82 % 0 lf 1017,4 hPa 0,0 l/m 0,90 h 0,00 h 314 W/m 9,2 km/h (2 Bft)
23.07.2015 10:00 20,0 C 20,3 C 75 % 0 lf 1017,5 hPa 0,0 l/m 0,97 h 0,00 h 392 W/m 12,8 km/h (3 Bft)
23.07.2015 11:00 21,7 C 21,8 C 67 % 0 lf 1017,6 hPa 0,0 l/m 0,90 h 0,00 h 580 W/m 13,1 km/h (3 Bft)
23.07.2015 12:00 23,0 C 23,1 C 61 % 0 lf 1017,3 hPa 0,0 l/m 0,57 h 0,00 h 453 W/m 14,6 km/h (3 Bft)
23.07.2015 13:00 22,8 C 21,8 C 59 % 0 lf 1017,1 hPa 0,0 l/m 0,30 h 0,00 h 449 W/m 14,3 km/h (3 Bft)
23.07.2015 14:00 22,4 C 20,8 C 60 % 0 lf 1017,1 hPa 0,0 l/m 0,13 h 0,00 h 229 W/m 12,5 km/h (3 Bft)
23.07.2015 15:00 22,2 C 21,7 C 60 % 0 lf 1016,8 hPa 0,0 l/m 0,23 h 0,00 h 317 W/m 10,8 km/h (2 Bft)
23.07.2015 16:00 23,4 C 22,5 C 57 % 0 lf 1016,3 hPa 0,0 l/m 0,70 h 0,00 h 435 W/m 11,4 km/h (2 Bft)
23.07.2015 17:00 23,3 C 21,9 C 57 % 0 lf 1016,0 hPa 0,0 l/m 0,27 h 0,00 h 259 W/m 10,1 km/h (2 Bft)
23.07.2015 18:00 22,6 C 21,4 C 56 % 0 lf 1015,7 hPa 0,0 l/m 0,73 h 0,00 h 320 W/m 10,8 km/h (2 Bft)
23.07.2015 19:00 22,4 C 21,0 C 56 % 0 lf 1015,3 hPa 0,0 l/m 1,00 h 0,00 h 213 W/m 9,1 km/h (2 Bft)
23.07.2015 20:00 21,7 C 20,0 C 58 % 0 lf 1015,3 hPa 0,0 l/m 1,00 h 0,00 h 91 W/m 8,3 km/h (2 Bft)
23.07.2015 21:00 20,5 C 17,6 C 61 % 0 lf 1015,5 hPa 0,0 l/m 0,40 h 0,00 h 18 W/m 4,7 km/h (1 Bft)
23.07.2015 22:00 18,8 C 15,4 C 69 % 0 lf 1015,8 hPa 0,0 l/m 0,00 h 0,00 h 0 W/m 1,0 km/h (0 Bft)
23.07.2015 23:00 17,4 C 15,0 C 75 % 0 lf 1015,5 hPa 0,0 l/m 0,00 h 0,00 h 0 W/m 0,8 km/h (0 Bft)
24.07.2015 00:00 16,7 C 14,7 C 79 % 0 lf 1015,4 hPa 0,0 l/m 0,00 h 0,00 h 0 W/m 1,2 km/h (1 Bft)
24.07.2015 01:00 15,9 C 13,7 C 81 % 0 lf 1015,3 hPa 0,0 l/m 0,00 h 0,00 h 0 W/m 1,5 km/h (1 Bft)
24.07.2015 02:00 15,1 C 13,2 C 84 % 0 lf 1015,0 hPa 0,0 l/m 0,00 h 0,00 h 0 W/m 0,8 km/h (0 Bft)
24.07.2015 03:00 14,7 C 13,7 C 87 % 0 lf 1014,5 hPa 0,0 l/m 0,00 h 0,00 h 0 W/m 0,4 km/h (0 Bft)
24.07.2015 04:00 14,7 C 13,9 C 88 % 0 lf 1014,1 hPa 0,0 l/m 0,00 h 0,00 h 0 W/m 2,6 km/h (1 Bft)
24.07.2015 05:00 15,0 C 13,9 C 88 % 0 lf 1013,6 hPa 0,0 l/m 0,00 h 0,00 h 7 W/m 2,8 km/h (1 Bft)
24.07.2015 06:00 15,3 C 14,5 C 88 % 0 lf 1013,2 hPa 0,0 l/m 0,00 h 0,10 h 19 W/m 3,5 km/h (1 Bft)
24.07.2015 07:00 15,8 C 15,4 C 88 % 1 lf 1013,1 hPa 0,0 l/m 0,00 h 0,07 h 74 W/m 4,9 km/h (1 Bft)
24.07.2015 08:00 17,2 C 17,3 C 85 % 0 lf 1012,9 hPa 0,0 l/m 0,67 h 0,00 h 228 W/m 8,7 km/h (2 Bft)
24.07.2015 09:00 20,0 C 19,5 C 74 % 0 lf 1012,6 hPa 0,0 l/m 1,00 h 0,00 h 412 W/m 11,1 km/h (2 Bft)
24.07.2015 10:00 22,8 C 23,7 C 64 % 0 lf 1012,2 hPa 0,0 l/m 1,00 h 0,00 h 503 W/m 8,6 km/h (2 Bft)
24.07.2015 11:00 24,8 C 24,4 C 59 % 0 lf 1011,5 hPa 0,0 l/m 1,00 h 0,00 h 563 W/m 6,7 km/h (2 Bft)
24.07.2015 12:00 26,6 C 27,5 C 53 % 0 lf 1010,6 hPa 0,0 l/m 0,90 h 0,00 h 731 W/m 10,2 km/h (2 Bft)
24.07.2015 13:00 27,7 C 26,5 C 51 % 0 lf 1009,9 hPa 0,0 l/m 1,00 h 0,00 h 673 W/m 10,8 km/h (2 Bft)
24.07.2015 14:00 27,9 C 26,6 C 49 % 0 lf 1009,1 hPa 0,0 l/m 0,80 h 0,00 h 475 W/m 7,7 km/h (2 Bft)
24.07.2015 15:00 28,0 C 26,7 C 47 % 0 lf 1008,3 hPa 0,0 l/m 0,67 h 0,00 h 446 W/m 7,0 km/h (2 Bft)
24.07.2015 16:00 27,9 C 26,5 C 47 % 0 lf 1007,4 hPa 0,0 l/m 0,80 h 0,00 h 392 W/m 9,0 km/h (2 Bft)
24.07.2015 17:00 27,5 C 25,6 C 47 % 0 lf 1006,4 hPa 0,0 l/m 0,10 h 0,00 h 234 W/m 8,6 km/h (2 Bft)
24.07.2015 18:00 26,6 C 24,8 C 51 % 0 lf 1005,6 hPa 0,0 l/m 0,03 h 0,00 h 166 W/m 8,7 km/h (2 Bft)
24.07.2015 19:00 25,6 C 23,6 C 55 % 0 lf 1004,7 hPa 0,0 l/m 0,00 h 0,00 h 72 W/m 11,1 km/h (2 Bft)
24.07.2015 20:00 24,3 C 22,3 C 62 % 0 lf 1004,2 hPa 0,0 l/m 0,00 h 0,00 h 26 W/m 9,2 km/h (2 Bft)
24.07.2015 21:00 23,2 C 21,2 C 65 % 0 lf 1003,6 hPa 0,0 l/m 0,00 h 0,00 h 7 W/m 9,9 km/h (2 Bft)
24.07.2015 22:00 22,3 C 18,9 C 71 % 8 lf 1003,6 hPa 0,2 l/m 0,00 h 0,53 h 0 W/m 10,0 km/h (2 Bft)
24.07.2015 23:00 20,0 C 16,7 C 87 % 15 lf 1003,2 hPa 1,8 l/m 0,00 h 0,50 h 0 W/m 14,8 km/h (3 Bft)
25.07.2015 00:00 18,7 C 16,7 C 92 % 4 lf 1001,8 hPa 0,0 l/m 0,00 h 0,00 h 0 W/m 12,3 km/h (3 Bft)
25.07.2015 01:00 18,2 C 16,2 C 94 % 1 lf 1001,1 hPa 0,0 l/m 0,00 h 0,00 h 0 W/m 11,7 km/h (2 Bft)
25.07.2015 02:00 18,0 C 16,1 C 95 % 2 lf 1000,4 hPa 0,0 l/m 0,00 h 0,00 h 0 W/m 12,4 km/h (3 Bft)
25.07.2015 03:00 17,7 C 15,6 C 94 % 1 lf 1000,1 hPa 0,0 l/m 0,00 h 0,00 h 0 W/m 11,9 km/h (2 Bft)
25.07.2015 04:00 17,5 C 15,6 C 94 % 2 lf 999,8 hPa 0,2 l/m 0,00 h 0,13 h 0 W/m 11,2 km/h (2 Bft)
25.07.2015 05:00 17,5 C 15,6 C 94 % 1 lf 999,5 hPa 0,0 l/m 0,00 h 0,00 h 6 W/m 11,2 km/h (2 Bft)
25.07.2015 06:00 18,0 C 16,1 C 94 % 1 lf 999,0 hPa 0,0 l/m 0,00 h 0,07 h 16 W/m 16,3 km/h (3 Bft)
25.07.2015 07:00 18,3 C 16,4 C 92 % 0 lf 998,5 hPa 0,0 l/m 0,63 h 0,00 h 168 W/m 18,5 km/h (3 Bft)
25.07.2015 08:00 19,3 C 17,9 C 84 % 3 lf 998,5 hPa 0,0 l/m 0,17 h 0,20 h 140 W/m 22,9 km/h (4 Bft)
25.07.2015 09:00 18,4 C 15,8 C 89 % 15 lf 998,8 hPa 3,2 l/m 0,30 h 0,50 h 217 W/m 25,4 km/h (4 Bft)
25.07.2015 10:00 17,7 C 16,1 C 90 % 4 lf 999,5 hPa 0,0 l/m 0,63 h 0,00 h 394 W/m 34,1 km/h (5 Bft)
25.07.2015 11:00 17,3 C 15,3 C 87 % 7 lf 1000,3 hPa 0,2 l/m 0,00 h 0,57 h 129 W/m 38,7 km/h (5 Bft)
25.07.2015 12:00 15,9 C 14,5 C 93 % 15 lf 1002,4 hPa 0,2 l/m 0,17 h 0,83 h 326 W/m 40,2 km/h (6 Bft)
25.07.2015 13:00 16,2 C 14,5 C 89 % 11 lf 1003,5 hPa 0,2 l/m 0,33 h 0,53 h 322 W/m 44,9 km/h (6 Bft)
25.07.2015 14:00 15,1 C 13,3 C 91 % 15 lf 1005,2 hPa 0,6 l/m 0,00 h 0,67 h 155 W/m 47,7 km/h (6 Bft)
25.07.2015 15:00 14,4 C 12,9 C 92 % 15 lf 1006,7 hPa 0,0 l/m 0,00 h 0,27 h 163 W/m 44,5 km/h (6 Bft)
25.07.2015 16:00 15,0 C 13,4 C 85 % 1 lf 1008,1 hPa 0,0 l/m 0,00 h 0,27 h 182 W/m 48,5 km/h (6 Bft)
25.07.2015 17:00 14,6 C 12,9 C 86 % 12 lf 1009,5 hPa 0,2 l/m 0,00 h 0,77 h 111 W/m 40,0 km/h (6 Bft)
25.07.2015 18:00 14,7 C 13,9 C 86 % 0 lf 1010,8 hPa 0,0 l/m 0,07 h 0,07 h 160 W/m 40,0 km/h (6 Bft)
25.07.2015 19:00 14,8 C 13,8 C 84 % 0 lf 1012,0 hPa 0,0 l/m 0,23 h 0,00 h 99 W/m 34,1 km/h (5 Bft)
25.07.2015 20:00 14,2 C 12,4 C 85 % 9 lf 1013,2 hPa 0,8 l/m 0,00 h 0,50 h 30 W/m 28,0 km/h (4 Bft)
25.07.2015 21:00 13,0 C 11,1 C 91 % 15 lf 1014,1 hPa 0,0 l/m 0,10 h 0,00 h 13 W/m 17,8 km/h (3 Bft)
25.07.2015 22:00 12,5 C 10,4 C 90 % 15 lf 1014,8 hPa 0,0 l/m 0,00 h 0,00 h 0 W/m 18,5 km/h (3 Bft)
25.07.2015 23:00 12,5 C 10,5 C 89 % 7 lf 1015,4 hPa 0,0 l/m 0,00 h 0,00 h 0 W/m 17,8 km/h (3 Bft)
26.07.2015 00:00 12,5 C 10,1 C 86 % 0 lf 1015,9 hPa 0,0 l/m 0,00 h 0,00 h 0 W/m 18,3 km/h (3 Bft)
26.07.2015 01:00 11,8 C 9,6 C 87 % 0 lf 1016,2 hPa 0,0 l/m 0,00 h 0,00 h 0 W/m 12,7 km/h (3 Bft)
26.07.2015 02:00 11,0 C 9,2 C 89 % 1 lf 1016,0 hPa 0,0 l/m 0,00 h 0,00 h 0 W/m 11,1 km/h (2 Bft)
26.07.2015 03:00 10,4 C 8,9 C 91 % 1 lf 1015,8 hPa 0,0 l/m 0,00 h 0,00 h 0 W/m 11,5 km/h (2 Bft)
26.07.2015 04:00 10,1 C 8,9 C 93 % 3 lf 1015,7 hPa 0,0 l/m 0,00 h 0,00 h 0 W/m 10,2 km/h (2 Bft)
26.07.2015 05:00 9,8 C 8,8 C 94 % 10 lf 1015,9 hPa 0,0 l/m 0,00 h 0,00 h 7 W/m 7,8 km/h (2 Bft)
26.07.2015 06:00 9,6 C 8,7 C 94 % 15 lf 1015,7 hPa 0,0 l/m 0,77 h 0,00 h 54 W/m 6,2 km/h (2 Bft)
26.07.2015 07:00 10,2 C 10,1 C 96 % 9 lf 1015,6 hPa 0,0 l/m 1,00 h 0,00 h 181 W/m 8,5 km/h (2 Bft)
26.07.2015 08:00 12,0 C 12,0 C 97 % 0 lf 1015,4 hPa 0,0 l/m 1,00 h 0,00 h 332 W/m 9,8 km/h (2 Bft)
26.07.2015 09:00 15,4 C 14,5 C 89 % 0 lf 1014,8 hPa 0,0 l/m 1,00 h 0,00 h 490 W/m 12,2 km/h (2 Bft)
26.07.2015 10:00 18,9 C 22,0 C 74 % 0 lf 1014,3 hPa 0,0 l/m 1,00 h 0,00 h 629 W/m 17,1 km/h (3 Bft)
26.07.2015 11:00 20,9 C 21,6 C 59 % 0 lf 1013,3 hPa 0,0 l/m 1,00 h 0,00 h 775 W/m 20,5 km/h (4 Bft)
26.07.2015 12:00 21,4 C 21,4 C 54 % 0 lf 1012,3 hPa 0,0 l/m 0,53 h 0,00 h 512 W/m 21,7 km/h (4 Bft)
26.07.2015 13:00 22,3 C 21,5 C 52 % 0 lf 1011,3 hPa 0,0 l/m 0,60 h 0,00 h 624 W/m 21,8 km/h (4 Bft)
26.07.2015 14:00 22,3 C 21,0 C 51 % 0 lf 1010,4 hPa 0,0 l/m 0,43 h 0,00 h 482 W/m 20,6 km/h (4 Bft)
26.07.2015 15:00 22,7 C 21,6 C 49 % 0 lf 1009,3 hPa 0,0 l/m 0,40 h 0,00 h 407 W/m 17,3 km/h (3 Bft)
26.07.2015 16:00 22,1 C 20,3 C 51 % 0 lf 1008,2 hPa 0,0 l/m 0,00 h 0,03 h 221 W/m 16,4 km/h (3 Bft)
26.07.2015 17:00 20,9 C 18,5 C 55 % 1 lf 1007,7 hPa 0,0 l/m 0,00 h 0,40 h 99 W/m 16,9 km/h (3 Bft)
26.07.2015 18:00 19,0 C 13,9 C 69 % 14 lf 1007,5 hPa 0,8 l/m 0,00 h 0,93 h 40 W/m 10,6 km/h (2 Bft)
26.07.2015 19:00 16,5 C 13,2 C 83 % 15 lf 1007,2 hPa 1,0 l/m 0,00 h 0,83 h 22 W/m 8,2 km/h (2 Bft)
26.07.2015 20:00 15,6 C 13,3 C 89 % 15 lf 1006,3 hPa 0,2 l/m 0,00 h 0,40 h 15 W/m 6,7 km/h (2 Bft)
26.07.2015 21:00 15,0 C 13,0 C 91 % 15 lf 1005,4 hPa 0,0 l/m 0,00 h 0,00 h 7 W/m 10,6 km/h (2 Bft)
26.07.2015 22:00 14,4 C 12,5 C 91 % 12 lf 1004,7 hPa 0,4 l/m 0,00 h 0,23 h 0 W/m 14,7 km/h (3 Bft)
26.07.2015 23:00 14,2 C 12,2 C 90 % 0 lf 1003,5 hPa 0,0 l/m 0,00 h 0,03 h 0 W/m 18,9 km/h (3 Bft)
Min-Datum _ 26.07.15 26.07.15 24.07.15 20.07.15 25.07.15 - - - - 20.07.15
_ Min-Zeit 06:26 05:48 15:20 08:28 09:20 - - - - 02:52
Minimum _ 9,5 C 8,3 C 45 % 0 lf 998,3 hPa - - - - 0,0 km/h (0 Bft)
Max-Datum _ 24.07.15 21.07.15 20.07.15 20.07.15 23.07.15 25.07.15 20.07.15 20.07.15 21.07.15 25.07.15
_ Max-Zeit 14:48 12:12 07:36 04:12 11:17 09:08 06:05 10:18 13:42 16:32
Maximum _ 28,2 C 28,9 C 97 % 15 lf 1017,8 hPa 3,2 l/m 0,03 h 0,03 h 1209 W/m 73,2 km/h
W-SW (8 Bft)
Durchschnitt _ 19,6 C 18,1 C 79 % 3 lf 1011,7 hPa #10,8 l/m #52:03 h #10:18 h 261 W/m 13,2 km/h (3 Bft)
© 2015 W. Hausmann